Terminal Aerodrome Forecast
Issued by NWS

Home | Current Version | Previous Version | Text Only | Print | Product List | Glossary On
Versions: 1 2 3 4 5 6 7 8 9 10 11 12 13 14 15 16 17 18 19 20 21 22 23 24 25 26 27 28 29 30 31 32 33 34 35 36 37 38 39 40 41 42 43 44 45 46 47 48 49 50
401
FTUS41 KRNK 051736
TAFLWB
TAF
KLWB 051736Z 0518/0618 31006KT 3SM SHRA BR OVC025
     FM060000 32005KT 5SM -SHRA BR OVC007
     FM060700 32004KT 3SM BR OVC007
     FM061200 31010G15KT P6SM OVC015=

USA.gov is the U.S. government's official web portal to all federal, state and local government web resources and services.